Time;durP1;ratioP1;P1;durP2;ratioP2;P2;SDS_P1;SDS_P2;PMS_P1;PMS_P2;Temp;Humidity;BMP_temperature;BMP_pressure;BME280_temperature;BME280_humidity;BME280_pressure;Samples;Min_cycle;Max_cycle;Signal;HPM_P1;HPM_P2
2023/12/12 00:01:44;;;;;;;22.75;3.53;;;;;;;;;;6420342;22;20010;-76
2023/12/12 00:04:10;;;;;;;21.70;3.78;;;;;;;;;;6420596;22;20031;-76
2023/12/12 00:06:35;;;;;;;11.45;2.78;;;;;;;;;;6392432;22;20010;-76
2023/12/12 00:09:05;;;;;;;21.60;3.58;;;;;;;;;;6391228;22;20042;-77
2023/12/12 00:11:31;;;;;;;17.90;3.28;;;;;;;;;;6364521;22;20006;-79
2023/12/12 00:13:57;;;;;;;13.85;2.90;;;;;;;;;;6390353;22;19994;-76
2023/12/12 00:16:23;;;;;;;23.08;2.80;;;;;;;;;;6394242;22;20010;-77
2023/12/12 00:18:49;;;;;;;17.25;3.20;;;;;;;;;;6366500;22;20020;-77
2023/12/12 00:21:15;;;;;;;19.17;3.60;;;;;;;;;;6421344;22;19994;-77
2023/12/12 00:23:40;;;;;;;16.98;3.10;;;;;;;;;;6420616;22;20006;-76
2023/12/12 00:26:07;;;;;;;12.57;3.08;;;;;;;;;;6422035;22;20021;-76
2023/12/12 00:28:36;;;;;;;12.15;3.67;;;;;;;;;;6393090;22;20021;-75
2023/12/12 00:31:02;;;;;;;17.77;3.10;;;;;;;;;;6393333;22;20017;-76
2023/12/12 00:33:29;;;;;;;20.67;3.25;;;;;;;;;;6421100;22;20036;-76
2023/12/12 00:35:55;;;;;;;16.48;2.80;;;;;;;;;;6420118;22;20055;-76
2023/12/12 00:38:28;;;;;;;13.25;3.85;;;;;;;;;;6394191;22;20021;-76
2023/12/12 00:40:53;;;;;;;19.77;3.33;;;;;;;;;;6393109;22;20042;-76
2023/12/12 00:43:20;;;;;;;13.73;3.35;;;;;;;;;;6392087;22;20010;-76
2023/12/12 00:45:46;;;;;;;18.63;3.60;;;;;;;;;;6392569;22;20070;-76
2023/12/12 00:48:12;;;;;;;19.20;3.72;;;;;;;;;;6393022;22;20109;-76
2023/12/12 00:50:37;;;;;;;20.88;3.72;;;;;;;;;;6392819;22;20035;-76
2023/12/12 00:53:03;;;;;;;12.15;3.58;;;;;;;;;;6394332;22;19994;-76
2023/12/12 00:55:29;;;;;;;27.23;3.95;;;;;;;;;;6390312;22;20011;-76
2023/12/12 00:57:54;;;;;;;15.80;3.33;;;;;;;;;;6419865;22;20046;-75
2023/12/12 01:00:20;;;;;;;13.15;3.45;;;;;;;;;;6420431;22;20006;-76
2023/12/12 01:02:47;;;;;;;20.85;3.42;;;;;;;;;;6367973;22;20005;-76
2023/12/12 01:05:12;;;;;;;16.25;3.15;;;;;;;;;;6367307;22;20014;-76
2023/12/12 01:07:40;;;;;;;15.05;3.75;;;;;;;;;;6391886;22;20026;-75
2023/12/12 01:10:09;;;;;;;16.10;3.15;;;;;;;;;;6418609;22;20104;-76
2023/12/12 01:12:36;;;;;;;16.42;2.80;;;;;;;;;;6396383;22;20073;-76
2023/12/12 01:15:02;;;;;;;19.10;3.53;;;;;;;;;;6423207;22;20026;-77
2023/12/12 01:17:29;;;;;;;12.25;2.90;;;;;;;;;;6394212;22;20326;-76
2023/12/12 01:19:55;;;;;;;12.60;2.80;;;;;;;;;;6423193;22;20019;-75
2023/12/12 01:22:21;;;;;;;11.45;2.65;;;;;;;;;;6394696;22;20006;-77
2023/12/12 01:24:47;;;;;;;18.75;3.50;;;;;;;;;;6393884;22;20093;-77
2023/12/12 01:27:14;;;;;;;15.50;3.20;;;;;;;;;;6393846;22;20021;-76
2023/12/12 01:29:41;;;;;;;18.27;3.22;;;;;;;;;;6392855;22;19986;-77
2023/12/12 01:32:06;;;;;;;11.73;2.97;;;;;;;;;;6396208;22;20001;-77
2023/12/12 01:34:32;;;;;;;14.90;2.90;;;;;;;;;;6394386;22;20010;-77
2023/12/12 01:36:58;;;;;;;6.32;2.08;;;;;;;;;;6394259;22;20009;-77
2023/12/12 01:39:24;;;;;;;12.00;2.75;;;;;;;;;;6395373;22;20018;-77
2023/12/12 01:41:50;;;;;;;14.88;2.40;;;;;;;;;;6394962;22;20013;-76
2023/12/12 01:44:16;;;;;;;16.55;3.15;;;;;;;;;;6396158;22;19994;-76
2023/12/12 01:46:47;;;;;;;12.48;2.47;;;;;;;;;;6394558;22;20006;-77
2023/12/12 01:49:18;;;;;;;14.95;3.38;;;;;;;;;;6368707;22;20032;-76
2023/12/12 01:51:48;;;;;;;16.70;3.75;;;;;;;;;;6395779;22;20010;-78
2023/12/12 01:54:16;;;;;;;16.33;3.00;;;;;;;;;;6394235;22;20026;-77
2023/12/12 01:56:49;;;;;;;21.45;3.20;;;;;;;;;;6394645;22;20013;-77
2023/12/12 01:59:20;;;;;;;16.40;3.17;;;;;;;;;;6396350;22;19997;-76
2023/12/12 02:01:49;;;;;;;11.98;2.75;;;;;;;;;;6394477;22;19998;-78
2023/12/12 02:04:18;;;;;;;20.42;4.03;;;;;;;;;;6392884;22;20018;-77
2023/12/12 02:06:46;;;;;;;12.55;3.25;;;;;;;;;;6368323;22;20047;-77
2023/12/12 02:09:12;;;;;;;13.90;3.53;;;;;;;;;;6393344;22;20022;-76
2023/12/12 02:11:41;;;;;;;14.38;2.55;;;;;;;;;;6393675;22;20027;-78
2023/12/12 02:14:10;;;;;;;12.90;3.30;;;;;;;;;;6395246;22;19993;-77
2023/12/12 02:16:39;;;;;;;20.20;3.42;;;;;;;;;;6396858;22;20033;-76
2023/12/12 02:19:06;;;;;;;16.95;3.58;;;;;;;;;;6423699;22;20033;-77
2023/12/12 02:21:35;;;;;;;12.60;2.65;;;;;;;;;;6423990;22;20025;-77
2023/12/12 02:24:01;;;;;;;19.10;3.28;;;;;;;;;;6397635;22;20014;-77
2023/12/12 02:26:27;;;;;;;18.80;3.47;;;;;;;;;;6396770;22;19998;-77
2023/12/12 02:28:53;;;;;;;18.95;3.17;;;;;;;;;;6371073;22;20036;-77
2023/12/12 02:31:19;;;;;;;12.63;2.60;;;;;;;;;;6396030;22;20010;-75
2023/12/12 02:33:45;;;;;;;15.00;2.67;;;;;;;;;;6370317;22;20014;-77
2023/12/12 02:36:11;;;;;;;15.55;2.78;;;;;;;;;;6396123;22;20112;-77
2023/12/12 02:38:36;;;;;;;16.45;3.15;;;;;;;;;;6393888;22;20046;-77
2023/12/12 02:41:03;;;;;;;19.23;3.33;;;;;;;;;;6398669;22;19994;-77
2023/12/12 02:43:29;;;;;;;18.63;3.20;;;;;;;;;;6396984;22;20056;-77
2023/12/12 02:45:59;;;;;;;13.27;3.00;;;;;;;;;;6368952;22;20043;-78
2023/12/12 02:48:26;;;;;;;15.45;2.88;;;;;;;;;;6370812;22;20025;-76
2023/12/12 02:50:52;;;;;;;15.70;3.08;;;;;;;;;;6396209;22;20010;-77
2023/12/12 02:53:18;;;;;;;17.67;3.75;;;;;;;;;;6426130;22;20030;-77
2023/12/12 02:55:44;;;;;;;21.35;3.83;;;;;;;;;;6396007;22;20014;-76
2023/12/12 02:58:15;;;;;;;15.68;3.75;;;;;;;;;;6422675;22;20036;-77
2023/12/12 03:00:44;;;;;;;18.52;3.67;;;;;;;;;;6394811;22;20101;-77
2023/12/12 03:03:15;;;;;;;12.48;3.33;;;;;;;;;;6395535;22;20014;-76
2023/12/12 03:05:42;;;;;;;21.95;3.35;;;;;;;;;;6389645;22;20048;-77
2023/12/12 03:08:08;;;;;;;17.77;3.70;;;;;;;;;;6365390;22;20006;-76
2023/12/12 03:10:34;;;;;;;18.13;3.22;;;;;;;;;;6362479;22;20021;-77
2023/12/12 03:13:00;;;;;;;17.67;3.30;;;;;;;;;;6391636;22;20010;-77
2023/12/12 03:15:25;;;;;;;13.90;3.55;;;;;;;;;;6389443;22;20025;-76
2023/12/12 03:17:57;;;;;;;14.75;3.15;;;;;;;;;;6388849;22;20005;-77
2023/12/12 03:20:23;;;;;;;17.92;3.13;;;;;;;;;;6391867;22;20009;-77
2023/12/12 03:22:49;;;;;;;19.92;3.67;;;;;;;;;;6394211;22;20009;-77
2023/12/12 03:25:14;;;;;;;12.85;3.33;;;;;;;;;;6392685;22;20007;-77
2023/12/12 03:27:40;;;;;;;18.35;3.35;;;;;;;;;;6390642;22;20022;-77
2023/12/12 03:30:07;;;;;;;20.75;3.58;;;;;;;;;;6390300;22;20003;-77
2023/12/12 03:32:33;;;;;;;23.48;3.55;;;;;;;;;;6389494;22;19998;-75
2023/12/12 03:34:58;;;;;;;13.63;3.35;;;;;;;;;;6391457;22;19995;-76
2023/12/12 03:37:27;;;;;;;18.23;3.45;;;;;;;;;;6390714;22;20016;-77
2023/12/12 03:39:54;;;;;;;16.85;3.60;;;;;;;;;;6390110;22;19994;-77
2023/12/12 03:42:21;;;;;;;18.02;3.63;;;;;;;;;;6363682;22;20029;-77
2023/12/12 03:44:52;;;;;;;21.85;4.50;;;;;;;;;;6391136;22;20081;-77
2023/12/12 03:47:18;;;;;;;18.52;3.95;;;;;;;;;;6393459;22;20005;-76
2023/12/12 03:49:44;;;;;;;14.82;3.67;;;;;;;;;;6389458;22;20048;-77
2023/12/12 03:52:13;;;;;;;20.35;4.80;;;;;;;;;;6391181;22;20006;-76
2023/12/12 03:54:39;;;;;;;23.77;4.43;;;;;;;;;;6390365;22;20006;-77
2023/12/12 03:57:08;;;;;;;16.40;3.72;;;;;;;;;;6391911;22;20010;-77
2023/12/12 03:59:34;;;;;;;16.75;4.15;;;;;;;;;;6389339;22;20093;-77
2023/12/12 04:02:00;;;;;;;12.25;4.20;;;;;;;;;;6391957;22;20001;-77
2023/12/12 04:04:29;;;;;;;13.10;4.07;;;;;;;;;;6383775;22;20022;-77
2023/12/12 04:06:55;;;;;;;15.32;3.80;;;;;;;;;;6332581;22;20014;-77
2023/12/12 04:09:22;;;;;;;19.27;3.97;;;;;;;;;;6357727;22;20018;-76
2023/12/12 04:11:52;;;;;;;21.33;4.40;;;;;;;;;;6332273;22;20398;-77
2023/12/12 04:14:20;;;;;;;15.48;4.45;;;;;;;;;;6359304;22;20075;-77
2023/12/12 04:16:49;;;;;;;17.33;4.55;;;;;;;;;;6357047;22;20017;-77
2023/12/12 04:19:14;;;;;;;22.42;6.00;;;;;;;;;;6357043;22;20007;-77
2023/12/12 04:21:44;;;;;;;15.95;4.70;;;;;;;;;;6357234;22;20457;-77
2023/12/12 04:24:10;;;;;;;18.23;4.93;;;;;;;;;;6305601;22;20011;-76
2023/12/12 04:26:36;;;;;;;15.73;4.47;;;;;;;;;;6359295;22;20047;-77
2023/12/12 04:29:05;;;;;;;22.73;4.70;;;;;;;;;;6361799;22;20013;-77
2023/12/12 04:31:31;;;;;;;20.27;4.00;;;;;;;;;;6355864;22;20034;-76
2023/12/12 04:33:56;;;;;;;23.73;5.43;;;;;;;;;;6331807;22;20038;-76
2023/12/12 04:36:22;;;;;;;14.25;4.97;;;;;;;;;;6358333;22;20002;-77
2023/12/12 04:38:48;;;;;;;18.58;5.30;;;;;;;;;;6357661;22;20082;-76
2023/12/12 04:41:14;;;;;;;16.05;4.80;;;;;;;;;;6360034;22;20010;-76
2023/12/12 04:43:42;;;;;;;15.63;5.15;;;;;;;;;;6357437;22;20030;-76
2023/12/12 04:46:09;;;;;;;21.38;5.05;;;;;;;;;;6357284;22;20354;-77
2023/12/12 04:48:44;;;;;;;15.00;5.07;;;;;;;;;;6359354;22;20014;-76
2023/12/12 04:51:09;;;;;;;23.13;5.28;;;;;;;;;;6358898;22;20003;-77
2023/12/12 04:53:40;;;;;;;18.00;4.78;;;;;;;;;;6358415;22;20002;-76
2023/12/12 04:56:09;;;;;;;24.10;5.13;;;;;;;;;;6359802;22;20489;-77
2023/12/12 04:58:38;;;;;;;13.45;3.85;;;;;;;;;;6358148;22;20054;-76
2023/12/12 05:01:04;;;;;;;16.88;4.07;;;;;;;;;;6359944;22;20010;-77
2023/12/12 05:03:32;;;;;;;15.15;3.65;;;;;;;;;;6359175;22;20007;-77
2023/12/12 05:06:04;;;;;;;20.92;4.65;;;;;;;;;;6356862;22;20019;-77
2023/12/12 05:08:33;;;;;;;11.18;4.47;;;;;;;;;;6358108;22;20002;-76
2023/12/12 05:10:59;;;;;;;17.35;3.97;;;;;;;;;;6360162;22;20006;-77
2023/12/12 05:13:28;;;;;;;15.40;4.82;;;;;;;;;;6359752;22;20034;-76
2023/12/12 05:15:56;;;;;;;11.55;4.30;;;;;;;;;;6323111;22;20035;-77
2023/12/12 05:18:22;;;;;;;17.02;4.60;;;;;;;;;;6357512;22;20015;-77
2023/12/12 05:20:49;;;;;;;12.98;4.03;;;;;;;;;;6358633;22;20011;-77
2023/12/12 05:23:21;;;;;;;10.10;3.95;;;;;;;;;;6334555;22;20003;-77
2023/12/12 05:25:47;;;;;;;12.88;4.00;;;;;;;;;;6357881;22;20011;-76
2023/12/12 05:28:17;;;;;;;9.40;3.55;;;;;;;;;;6356503;22;20015;-76
2023/12/12 05:30:44;;;;;;;14.80;4.45;;;;;;;;;;6358991;22;20025;-77
2023/12/12 05:33:10;;;;;;;12.77;4.22;;;;;;;;;;6361061;22;20013;-77
2023/12/12 05:35:37;;;;;;;11.75;4.47;;;;;;;;;;6358362;22;20003;-76
2023/12/12 05:38:03;;;;;;;12.32;4.55;;;;;;;;;;6334041;22;19999;-77
2023/12/12 05:40:35;;;;;;;15.48;4.63;;;;;;;;;;6358154;22;20014;-76
2023/12/12 05:43:04;;;;;;;13.80;4.53;;;;;;;;;;6357810;22;20037;-76
2023/12/12 05:45:30;;;;;;;14.77;4.70;;;;;;;;;;6333476;22;20011;-77
2023/12/12 05:47:57;;;;;;;18.08;5.88;;;;;;;;;;6359602;22;20014;-77
2023/12/12 05:50:26;;;;;;;19.70;5.82;;;;;;;;;;6359672;22;19995;-77
2023/12/12 05:52:54;;;;;;;13.80;5.47;;;;;;;;;;6359653;22;19999;-76
2023/12/12 05:55:19;;;;;;;15.13;5.57;;;;;;;;;;6359694;22;20064;-76
2023/12/12 05:57:48;;;;;;;15.18;4.72;;;;;;;;;;6359682;22;20011;-76
2023/12/12 06:00:15;;;;;;;15.40;4.68;;;;;;;;;;6359575;22;20021;-76
2023/12/12 06:02:43;;;;;;;13.05;4.60;;;;;;;;;;6335014;22;20060;-76
2023/12/12 06:05:10;;;;;;;15.98;4.57;;;;;;;;;;6371990;22;20717;-76
2023/12/12 06:07:37;;;;;;;18.23;4.55;;;;;;;;;;6360092;22;20015;-76
2023/12/12 06:10:11;;;;;;;13.70;4.30;;;;;;;;;;6333755;22;20034;-78
2023/12/12 06:12:37;;;;;;;;;;;;;;;;;;6360585;22;20022;-77
2023/12/12 06:15:03;;;;;;;11.98;4.45;;;;;;;;;;6360288;22;19890;-77
2023/12/12 06:17:34;;;;;;;11.73;4.93;;;;;;;;;;6360452;22;19985;-77
2023/12/12 06:20:03;;;;;;;14.13;4.85;;;;;;;;;;6360577;22;19998;-77
2023/12/12 06:22:32;;;;;;;12.38;4.35;;;;;;;;;;6359107;22;20015;-76
2023/12/12 06:24:58;;;;;;;14.82;5.15;;;;;;;;;;6359427;22;20003;-76
2023/12/12 06:27:28;;;;;;;12.50;4.38;;;;;;;;;;6361187;22;20011;-76
2023/12/12 06:29:54;;;;;;;8.77;4.50;;;;;;;;;;6358576;22;20021;-77
2023/12/12 06:32:22;;;;;;;13.13;4.90;;;;;;;;;;6362020;22;19994;-77
2023/12/12 06:34:48;;;;;;;13.35;4.38;;;;;;;;;;6361158;22;20014;-77
2023/12/12 06:37:17;;;;;;;12.40;4.97;;;;;;;;;;6361854;22;20067;-77
2023/12/12 06:39:43;;;;;;;10.60;4.45;;;;;;;;;;6361155;22;20000;-77
2023/12/12 06:42:09;;;;;;;10.77;4.35;;;;;;;;;;6359280;22;20011;-77
2023/12/12 06:44:38;;;;;;;13.30;5.07;;;;;;;;;;6359591;22;20015;-77
2023/12/12 06:47:06;;;;;;;15.52;4.82;;;;;;;;;;6361692;22;19971;-76
2023/12/12 06:49:32;;;;;;;9.88;4.57;;;;;;;;;;6358058;22;20052;-76
2023/12/12 06:52:08;;;;;;;13.27;5.13;;;;;;;;;;6332966;22;20019;-76
2023/12/12 06:54:34;;;;;;;12.43;4.47;;;;;;;;;;6334040;22;20068;-77
2023/12/12 06:57:00;;;;;;;8.68;3.72;;;;;;;;;;6359019;22;20015;-77
2023/12/12 06:59:29;;;;;;;14.68;5.45;;;;;;;;;;6347204;22;19998;-77
2023/12/12 07:01:57;;;;;;;11.73;5.13;;;;;;;;;;6362247;22;20021;-76
2023/12/12 07:04:23;;;;;;;19.73;7.00;;;;;;;;;;6360184;22;20041;-76
2023/12/12 07:06:51;;;;;;;19.70;7.30;;;;;;;;;;6359046;22;20019;-77
2023/12/12 07:09:17;;;;;;;15.77;6.10;;;;;;;;;;6359960;22;20019;-76
2023/12/12 07:11:44;;;;;;;17.95;6.65;;;;;;;;;;6334157;22;20013;-78
2023/12/12 07:14:16;;;;;;;16.23;6.40;;;;;;;;;;6360362;22;20018;-77
2023/12/12 07:16:44;;;;;;;17.42;6.65;;;;;;;;;;6359208;22;20565;-77
2023/12/12 07:19:10;;;;;;;18.40;6.68;;;;;;;;;;6359647;22;20011;-77
2023/12/12 07:21:39;;;;;;;18.10;6.32;;;;;;;;;;6360424;22;20018;-77
2023/12/12 07:24:07;;;;;;;11.75;5.40;;;;;;;;;;6358150;22;20011;-77
2023/12/12 07:26:35;;;;;;;14.35;5.38;;;;;;;;;;6358671;22;20144;-76
2023/12/12 07:29:01;;;;;;;16.08;5.13;;;;;;;;;;6361438;22;20003;-76
2023/12/12 07:31:27;;;;;;;10.90;4.32;;;;;;;;;;6359549;22;20063;-76
2023/12/12 07:33:56;;;;;;;10.07;4.32;;;;;;;;;;6344668;22;20018;-77
2023/12/12 07:36:22;;;;;;;10.77;4.43;;;;;;;;;;6358350;22;20021;-77
2023/12/12 07:38:55;;;;;;;11.95;4.65;;;;;;;;;;6358890;22;20014;-76
2023/12/12 07:41:21;;;;;;;9.55;4.68;;;;;;;;;;6362850;22;19999;-78
2023/12/12 07:43:47;;;;;;;11.73;4.47;;;;;;;;;;6362122;22;20015;-77
2023/12/12 07:46:14;;;;;;;14.68;4.97;;;;;;;;;;6359156;22;20019;-77
2023/12/12 07:48:40;;;;;;;13.18;5.28;;;;;;;;;;6358680;22;20049;-77
2023/12/12 07:51:06;;;;;;;10.32;5.50;;;;;;;;;;6357613;22;19990;-77
2023/12/12 07:53:35;;;;;;;11.55;4.78;;;;;;;;;;6359857;22;20005;-76
2023/12/12 07:56:07;;;;;;;12.45;4.78;;;;;;;;;;6360125;22;20026;-77
2023/12/12 07:58:33;;;;;;;14.32;5.35;;;;;;;;;;6358943;22;20007;-77
2023/12/12 08:01:00;;;;;;;12.82;4.78;;;;;;;;;;6357588;22;20062;-77
2023/12/12 08:03:26;;;;;;;14.10;7.35;;;;;;;;;;6359134;22;20498;-76
2023/12/12 08:05:52;;;;;;;13.15;5.80;;;;;;;;;;6358142;22;20168;-75
2023/12/12 08:08:18;;;;;;;11.52;6.10;;;;;;;;;;6360450;22;19999;-76
2023/12/12 08:10:44;;;;;;;13.07;5.55;;;;;;;;;;6357574;22;20018;-77
2023/12/12 08:13:10;;;;;;;14.38;6.30;;;;;;;;;;6357295;22;20014;-77
2023/12/12 08:15:42;;;;;;;13.52;5.45;;;;;;;;;;6359246;22;20010;-77
2023/12/12 08:18:11;;;;;;;12.50;5.00;;;;;;;;;;6357420;22;20070;-75
2023/12/12 08:20:39;;;;;;;13.68;5.40;;;;;;;;;;6358082;22;19991;-76
2023/12/12 08:23:10;;;;;;;7.53;4.20;;;;;;;;;;6335205;22;20022;-76
2023/12/12 08:25:36;;;;;;;11.43;4.60;;;;;;;;;;6359034;22;20019;-77
2023/12/12 08:28:08;;;;;;;10.68;4.07;;;;;;;;;;6359795;22;20058;-76
2023/12/12 08:30:38;;;;;;;10.50;4.55;;;;;;;;;;6357158;22;20018;-77
2023/12/12 08:33:05;;;;;;;12.43;5.22;;;;;;;;;;6335293;22;20010;-76
2023/12/12 08:35:30;;;;;;;12.07;5.60;;;;;;;;;;6318688;22;20493;-76
2023/12/12 08:37:55;;;;;;;10.10;4.22;;;;;;;;;;6324777;22;20006;-78
2023/12/12 08:40:21;;;;;;;12.30;5.47;;;;;;;;;;6327119;22;20048;-78
2023/12/12 08:42:48;;;;;;;9.18;4.20;;;;;;;;;;6326609;22;20036;-78
2023/12/12 08:45:13;;;;;;;10.10;4.30;;;;;;;;;;6325864;22;20064;-78
2023/12/12 08:47:38;;;;;;;11.32;4.38;;;;;;;;;;6325081;22;20002;-78
2023/12/12 08:50:04;;;;;;;7.80;4.00;;;;;;;;;;6327839;22;20094;-78
2023/12/12 08:52:31;;;;;;;5.78;2.80;;;;;;;;;;6327663;22;20018;-78
2023/12/12 08:54:57;;;;;;;9.85;4.13;;;;;;;;;;6325860;22;20022;-78
2023/12/12 08:57:23;;;;;;;10.40;4.82;;;;;;;;;;6324118;22;20011;-78
2023/12/12 08:59:48;;;;;;;8.43;4.63;;;;;;;;;;6328585;22;20500;-78
2023/12/12 09:02:14;;;;;;;12.20;4.90;;;;;;;;;;6332165;22;19999;-78
2023/12/12 09:04:39;;;;;;;11.15;5.90;;;;;;;;;;6339522;22;20049;-78
2023/12/12 09:07:05;;;;;;;11.30;5.10;;;;;;;;;;6346199;22;20014;-78
2023/12/12 09:09:31;;;;;;;11.27;5.30;;;;;;;;;;6331448;22;20086;-78
2023/12/12 09:11:57;;;;;;;8.68;4.70;;;;;;;;;;6326593;22;20033;-78
2023/12/12 09:14:23;;;;;;;9.57;4.28;;;;;;;;;;6327876;22;20003;-78
2023/12/12 09:16:48;;;;;;;9.00;4.30;;;;;;;;;;6327826;22;20086;-78
2023/12/12 09:19:16;;;;;;;11.57;4.90;;;;;;;;;;6327300;22;20006;-78
2023/12/12 09:21:42;;;;;;;12.85;5.47;;;;;;;;;;6327217;22;20022;-78
2023/12/12 09:24:07;;;;;;;9.63;4.72;;;;;;;;;;6327664;22;20037;-78
2023/12/12 09:26:33;;;;;;;11.70;5.07;;;;;;;;;;6323906;22;20059;-78
2023/12/12 09:28:58;;;;;;;26.88;4.63;;;;;;;;;;6327290;22;20059;-78
2023/12/12 09:31:26;;;;;;;69.05;7.50;;;;;;;;;;6326958;22;20059;-78
2023/12/12 09:33:52;;;;;;;7.57;3.60;;;;;;;;;;6326532;22;20098;-77
2023/12/12 09:36:17;;;;;;;7.38;3.40;;;;;;;;;;6324691;22;20030;-78
2023/12/12 09:38:42;;;;;;;8.75;4.13;;;;;;;;;;6324472;22;20099;-77
2023/12/12 09:41:16;;;;;;;162.65;9.50;;;;;;;;;;6326397;22;19999;-78
2023/12/12 09:43:44;;;;;;;30.77;4.35;;;;;;;;;;6325115;22;20064;-78
2023/12/12 09:46:09;;;;;;;9.40;3.97;;;;;;;;;;6323911;22;20010;-78
2023/12/12 09:48:35;;;;;;;9.07;4.10;;;;;;;;;;6326370;22;20103;-78
2023/12/12 09:51:03;;;;;;;8.98;4.40;;;;;;;;;;6326463;22;20022;-78
2023/12/12 09:53:35;;;;;;;8.02;3.60;;;;;;;;;;6325507;22;20038;-78
2023/12/12 09:56:03;;;;;;;7.90;3.80;;;;;;;;;;6325132;22;20014;-78
2023/12/12 09:58:28;;;;;;;10.07;4.50;;;;;;;;;;6325660;22;20041;-78
2023/12/12 10:00:55;;;;;;;8.95;4.75;;;;;;;;;;6322614;22;20021;-83
2023/12/12 10:03:21;;;;;;;9.95;4.45;;;;;;;;;;6326836;22;20011;-79
2023/12/12 10:05:53;;;;;;;9.90;4.40;;;;;;;;;;6374865;22;20026;-78
2023/12/12 10:08:19;;;;;;;8.40;4.43;;;;;;;;;;6390551;22;20025;-78
2023/12/12 10:10:44;;;;;;;7.20;3.75;;;;;;;;;;6389765;22;20070;-79
2023/12/12 10:13:09;;;;;;;10.38;4.13;;;;;;;;;;6390122;22;20431;-79
2023/12/12 10:15:35;;;;;;;77.18;7.00;;;;;;;;;;6390998;22;20085;-79
2023/12/12 10:18:00;;;;;;;30.42;5.55;;;;;;;;;;6361950;22;20204;-79
2023/12/12 10:20:28;;;;;;;10.25;4.85;;;;;;;;;;6362060;22;20043;-80
2023/12/12 10:22:56;;;;;;;10.85;5.20;;;;;;;;;;6396344;22;19998;-79
2023/12/12 10:25:23;;;;;;;8.70;4.53;;;;;;;;;;6403502;22;20014;-80
2023/12/12 10:27:51;;;;;;;8.60;4.55;;;;;;;;;;6376963;22;20043;-80
2023/12/12 10:30:16;;;;;;;11.43;5.00;;;;;;;;;;6367649;22;20025;-80
2023/12/12 10:32:43;;;;;;;10.55;5.15;;;;;;;;;;6388445;22;19998;-80
2023/12/12 10:35:08;;;;;;;12.02;5.00;;;;;;;;;;6390473;22;20062;-80
2023/12/12 10:37:34;;;;;;;7.72;4.47;;;;;;;;;;6389207;22;20085;-80
2023/12/12 10:40:17;;;;;;;10.68;4.72;;;;;;;;;;6361541;22;20076;-80
2023/12/12 10:42:43;;;;;;;10.45;5.10;;;;;;;;;;6391704;22;20014;-80
2023/12/12 10:45:13;;;;;;;8.10;4.22;;;;;;;;;;6363770;22;20093;-79
2023/12/12 10:47:45;;;;;;;8.82;4.85;;;;;;;;;;6362245;22;20500;-79
2023/12/12 10:50:16;;;;;;;12.15;4.93;;;;;;;;;;6391361;22;20013;-80
2023/12/12 10:52:43;;;;;;;7.55;4.35;;;;;;;;;;6391706;22;20057;-79
2023/12/12 10:55:10;;;;;;;8.85;4.03;;;;;;;;;;6362796;22;20685;-79
2023/12/12 10:57:42;;;;;;;17.15;4.57;;;;;;;;;;6362809;22;20075;-79
2023/12/12 11:00:14;;;;;;;8.98;4.03;;;;;;;;;;6389305;22;20025;-79
2023/12/12 11:02:43;;;;;;;8.23;4.28;;;;;;;;;;6391357;22;20048;-79
2023/12/12 11:05:11;;;;;;;9.23;4.40;;;;;;;;;;6363134;22;20425;-79
2023/12/12 11:07:37;;;;;;;6.38;3.67;;;;;;;;;;6391105;22;20032;-79
2023/12/12 11:10:09;;;;;;;6.38;3.53;;;;;;;;;;6361399;22;20089;-79
2023/12/12 11:12:40;;;;;;;8.57;3.90;;;;;;;;;;6362420;22;20017;-80
2023/12/12 11:15:07;;;;;;;5.95;3.33;;;;;;;;;;6363170;22;20021;-79
2023/12/12 11:17:32;;;;;;;6.60;3.25;;;;;;;;;;6389316;22;20017;-80
2023/12/12 11:19:58;;;;;;;5.97;3.17;;;;;;;;;;6391738;22;20093;-79
2023/12/12 11:22:40;;;;;;;5.55;2.70;;;;;;;;;;6390777;22;20021;-80
2023/12/12 11:25:10;;;;;;;9.68;3.08;;;;;;;;;;6362046;22;20021;-79
2023/12/12 11:27:41;;;;;;;5.85;3.00;;;;;;;;;;6390752;22;20445;-79
2023/12/12 11:30:08;;;;;;;7.20;3.05;;;;;;;;;;6362269;22;20024;-79
2023/12/12 11:32:36;;;;;;;4.93;2.63;;;;;;;;;;6391250;22;20066;-79
2023/12/12 11:35:06;;;;;;;5.72;2.95;;;;;;;;;;6391850;22;19998;-80
2023/12/12 11:37:42;;;;;;;4.65;3.08;;;;;;;;;;6391427;22;20025;-80
2023/12/12 11:40:09;;;;;;;4.88;2.78;;;;;;;;;;6363880;22;20058;-79
2023/12/12 11:42:35;;;;;;;3.35;1.77;;;;;;;;;;6398508;22;20006;-80
2023/12/12 11:45:01;;;;;;;4.90;2.58;;;;;;;;;;6410070;22;20091;-80
2023/12/12 11:47:29;;;;;;;4.70;2.65;;;;;;;;;;6379137;22;20008;-79
2023/12/12 11:50:15;;;;;;;7.70;2.67;;;;;;;;;;6366630;22;20006;-79
2023/12/12 11:52:40;;;;;;;4.43;2.60;;;;;;;;;;6364176;22;20017;-79
2023/12/12 11:55:07;;;;;;;4.68;2.50;;;;;;;;;;6389309;22;20009;-80
2023/12/12 11:57:32;;;;;;;4.35;2.30;;;;;;;;;;6360763;22;20089;-81
2023/12/12 12:00:03;;;;;;;6.53;3.05;;;;;;;;;;6360383;22;20082;-81
2023/12/12 12:02:29;;;;;;;6.63;3.20;;;;;;;;;;6390006;22;20340;-79
2023/12/12 12:04:54;;;;;;;5.85;2.90;;;;;;;;;;6360818;22;20462;-81
2023/12/12 12:07:19;;;;;;;6.70;2.97;;;;;;;;;;6390900;22;20462;-80
2023/12/12 12:09:49;;;;;;;5.55;2.90;;;;;;;;;;6390083;22;20495;-80
2023/12/12 12:12:16;;;;;;;6.70;3.20;;;;;;;;;;6362129;22;20013;-79
2023/12/12 12:14:41;;;;;;;7.10;3.25;;;;;;;;;;6362146;22;20012;-79
2023/12/12 12:17:07;;;;;;;6.88;3.65;;;;;;;;;;6362941;22;19994;-80
2023/12/12 12:19:33;;;;;;;7.65;3.50;;;;;;;;;;6362234;22;20006;-80
2023/12/12 12:22:03;;;;;;;7.50;3.63;;;;;;;;;;6361252;22;20010;-79
2023/12/12 12:24:30;;;;;;;6.95;3.95;;;;;;;;;;6361132;22;20009;-79
2023/12/12 12:26:56;;;;;;;6.00;3.40;;;;;;;;;;6390515;22;20017;-79
2023/12/12 12:29:21;;;;;;;8.77;3.38;;;;;;;;;;6362774;22;20006;-80
2023/12/12 12:31:47;;;;;;;6.95;3.55;;;;;;;;;;6361639;22;20037;-79
2023/12/12 12:34:18;;;;;;;6.35;3.10;;;;;;;;;;6390455;22;20533;-80
2023/12/12 12:36:46;;;;;;;6.18;2.70;;;;;;;;;;6361320;22;20100;-79
2023/12/12 12:39:16;;;;;;;6.80;3.53;;;;;;;;;;6362343;22;20017;-79
2023/12/12 12:41:47;;;;;;;8.40;3.35;;;;;;;;;;6360641;22;19997;-79
2023/12/12 12:44:13;;;;;;;6.45;3.00;;;;;;;;;;6360716;22;20462;-79
2023/12/12 12:46:47;;;;;;;7.25;3.08;;;;;;;;;;6360262;22;20098;-80
2023/12/12 12:49:12;;;;;;;6.28;2.70;;;;;;;;;;6360374;22;20049;-79
2023/12/12 12:51:39;;;;;;;6.88;3.10;;;;;;;;;;6361207;22;20010;-80
2023/12/12 12:54:04;;;;;;;6.93;2.85;;;;;;;;;;6389767;22;20017;-81
2023/12/12 12:56:30;;;;;;;7.80;2.88;;;;;;;;;;6390248;22;20009;-80
2023/12/12 12:58:55;;;;;;;5.85;2.80;;;;;;;;;;6362098;22;20368;-79
2023/12/12 13:01:21;;;;;;;5.60;2.53;;;;;;;;;;6364632;22;20010;-79
2023/12/12 13:03:47;;;;;;;6.30;2.70;;;;;;;;;;6374137;22;20013;-79
2023/12/12 13:06:13;;;;;;;6.95;2.55;;;;;;;;;;6373090;22;20051;-79
2023/12/12 13:08:40;;;;;;;4.00;2.22;;;;;;;;;;6389539;22;20036;-79
2023/12/12 13:11:05;;;;;;;6.03;2.42;;;;;;;;;;6390289;22;19998;-79
2023/12/12 13:13:31;;;;;;;5.93;2.78;;;;;;;;;;6360861;22;20085;-78
2023/12/12 13:15:56;;;;;;;5.10;2.47;;;;;;;;;;6389045;22;20042;-79
2023/12/12 13:18:22;;;;;;;4.65;2.55;;;;;;;;;;6361446;22;20093;-80
2023/12/12 13:20:47;;;;;;;4.85;2.25;;;;;;;;;;6360988;22;20009;-80
2023/12/12 13:23:12;;;;;;;6.43;2.95;;;;;;;;;;6360928;22;20002;-82
2023/12/12 13:25:38;;;;;;;7.47;2.85;;;;;;;;;;6387557;22;20016;-82
2023/12/12 13:28:04;;;;;;;5.63;2.80;;;;;;;;;;6389523;22;20040;-82
2023/12/12 13:30:29;;;;;;;6.88;3.55;;;;;;;;;;6388980;22;20053;-82
2023/12/12 13:32:54;;;;;;;4.72;2.67;;;;;;;;;;6360612;22;20009;-82
2023/12/12 13:35:21;;;;;;;6.60;3.00;;;;;;;;;;6361258;22;20029;-79
2023/12/12 13:37:46;;;;;;;7.97;3.15;;;;;;;;;;6357779;22;20361;-82
2023/12/12 13:40:12;;;;;;;6.20;2.80;;;;;;;;;;6359162;22;20041;-80
2023/12/12 13:42:38;;;;;;;8.77;2.70;;;;;;;;;;6389232;22;20006;-79
2023/12/12 13:45:07;;;;;;;9.93;3.08;;;;;;;;;;6386909;22;20014;-79
2023/12/12 13:47:33;;;;;;;6.28;2.70;;;;;;;;;;6389331;22;20001;-77
2023/12/12 13:50:00;;;;;;;6.95;2.60;;;;;;;;;;6387843;22;20516;-79
2023/12/12 13:52:26;;;;;;;5.68;2.53;;;;;;;;;;6389048;22;20033;-78
2023/12/12 13:54:51;;;;;;;7.03;2.55;;;;;;;;;;6389789;22;20017;-78
2023/12/12 13:57:16;;;;;;;4.05;2.28;;;;;;;;;;6388151;22;20010;-79
2023/12/12 13:59:42;;;;;;;8.02;2.60;;;;;;;;;;6361023;22;20024;-79
2023/12/12 14:02:07;;;;;;;6.00;2.38;;;;;;;;;;6389503;22;20023;-79
2023/12/12 14:04:33;;;;;;;5.30;2.38;;;;;;;;;;6361445;22;20026;-79
2023/12/12 14:06:58;;;;;;;7.45;2.80;;;;;;;;;;6361327;22;20010;-79
2023/12/12 14:09:24;;;;;;;9.20;2.33;;;;;;;;;;6388367;22;20017;-79
2023/12/12 14:11:50;;;;;;;9.23;2.75;;;;;;;;;;6361607;22;20010;-80
2023/12/12 14:14:16;;;;;;;3.95;2.00;;;;;;;;;;6361787;22;20044;-79
2023/12/12 14:16:41;;;;;;;3.00;1.83;;;;;;;;;;6391168;22;20010;-80
2023/12/12 14:19:07;;;;;;;3.53;1.90;;;;;;;;;;6392657;22;20070;-79
2023/12/12 14:21:33;;;;;;;3.13;1.70;;;;;;;;;;6369945;22;20014;-79
2023/12/12 14:23:59;;;;;;;7.47;2.00;;;;;;;;;;6380371;22;20010;-80
2023/12/12 14:26:25;;;;;;;3.63;1.70;;;;;;;;;;6409620;22;20408;-80
2023/12/12 14:28:51;;;;;;;6.07;1.65;;;;;;;;;;6367818;22;20033;-80
2023/12/12 14:31:16;;;;;;;4.55;1.40;;;;;;;;;;6392526;22;20009;-79
2023/12/12 14:33:44;;;;;;;5.35;1.60;;;;;;;;;;6363839;22;20014;-80
2023/12/12 14:36:10;;;;;;;5.50;1.55;;;;;;;;;;6363447;22;20092;-79